Time;durP1;ratioP1;P1;durP2;ratioP2;P2;SDS_P1;SDS_P2;PMS_P1;PMS_P2;Temp;Humidity;BMP_temperature;BMP_pressure;BME280_temperature;BME280_humidity;BME280_pressure;Samples;Min_cycle;Max_cycle;Signal;HPM_P1;HPM_P2
2022/06/11 00:02:10;;;;;;;6.10;4.57;;;13.20;93.30;;;;;;5110708;28;20434;-65
2022/06/11 00:04:41;;;;;;;5.47;3.90;;;13.10;93.50;;;;;;5110982;28;20439;-65
2022/06/11 00:07:13;;;;;;;7.23;4.00;;;13.20;93.50;;;;;;5110350;28;20457;-66
2022/06/11 00:09:47;;;;;;;4.60;3.90;;;13.20;93.50;;;;;;5111554;28;20434;-65
2022/06/11 00:12:22;;;;;;;5.20;4.33;;;13.20;93.60;;;;;;5112249;28;20529;-66
2022/06/11 00:14:51;;;;;;;5.73;3.63;;;13.20;93.80;;;;;;5092371;28;20431;-64
2022/06/11 00:17:21;;;;;;;5.20;3.73;;;13.20;93.70;;;;;;5096327;28;20437;-65
2022/06/11 00:19:48;;;;;;;5.20;3.90;;;13.20;93.50;;;;;;5112566;28;20569;-65
2022/06/11 00:22:17;;;;;;;6.10;4.07;;;13.10;93.40;;;;;;5112824;28;20581;-65
2022/06/11 00:24:45;;;;;;;5.57;4.40;;;13.10;93.40;;;;;;5112244;28;20800;-65
2022/06/11 00:27:18;;;;;;;5.30;3.97;;;13.10;93.20;;;;;;5112737;28;20430;-65
2022/06/11 00:29:48;;;;;;;7.03;4.60;;;13.10;93.40;;;;;;5112687;28;20426;-64
2022/06/11 00:32:16;;;;;;;5.57;3.17;;;13.00;93.40;;;;;;5112850;28;20430;-65
2022/06/11 00:34:49;;;;;;;6.03;3.80;;;13.00;93.50;;;;;;5112100;28;20434;-65
2022/06/11 00:37:20;;;;;;;5.93;4.03;;;13.00;93.50;;;;;;5112506;28;20427;-66
2022/06/11 00:39:51;;;;;;;6.83;3.90;;;13.00;93.40;;;;;;5112383;28;20560;-64
2022/06/11 00:42:25;;;;;;;14.37;6.07;;;12.90;93.40;;;;;;5112463;28;20442;-65
2022/06/11 00:45:13;;;;;;;7.40;5.00;;;12.90;93.20;;;;;;5112810;28;20567;-65
2022/06/11 00:47:45;;;;;;;6.20;4.60;;;13.00;93.30;;;;;;5098976;28;20816;-64
2022/06/11 00:50:29;;;;;;;8.43;4.70;;;12.90;93.10;;;;;;5112694;28;20518;-65
2022/06/11 00:52:59;;;;;;;6.20;3.83;;;12.90;92.80;;;;;;5112281;28;20434;-65
2022/06/11 00:55:36;;;;;;;8.63;4.57;;;12.80;92.40;;;;;;5112654;28;20935;-65
2022/06/11 00:58:09;;;;;;;4.63;3.70;;;12.80;92.60;;;;;;5111700;28;20461;-65
2022/06/11 01:00:44;;;;;;;6.73;3.90;;;12.70;93.10;;;;;;5112733;28;20438;-65
2022/06/11 01:03:18;;;;;;;4.90;3.73;;;12.70;93.30;;;;;;5112638;28;20445;-65
2022/06/11 01:06:00;;;;;;;4.03;3.60;;;12.70;93.40;;;;;;5112386;28;20434;-65
2022/06/11 01:08:36;;;;;;;5.33;3.40;;;12.70;93.60;;;;;;5112211;28;20467;-65
2022/06/11 01:11:26;;;;;;;6.40;3.70;;;12.70;93.80;;;;;;5112660;28;20437;-65
2022/06/11 01:14:10;;;;;;;3.93;3.17;;;12.60;93.90;;;;;;5111986;28;20434;-65
2022/06/11 01:16:47;;;;;;;5.30;3.57;;;12.60;94.20;;;;;;5111689;28;20430;-65
2022/06/11 01:20:05;;;;;;;5.00;4.03;;;12.60;94.10;;;;;;5112269;28;21064;-65
2022/06/11 01:22:56;;;;;;;6.83;3.57;;;12.50;93.70;;;;;;5112113;28;20462;-65
2022/06/11 01:25:32;;;;;;;4.43;3.63;;;12.50;93.90;;;;;;5109341;28;20442;-65
2022/06/11 01:28:31;;;;;;;5.43;3.70;;;12.40;93.90;;;;;;5113854;28;20477;-64
2022/06/11 01:31:07;;;;;;;5.07;3.40;;;12.30;94.00;;;;;;5115806;28;20947;-65
2022/06/11 01:33:44;;;;;;;5.88;3.55;;;12.30;94.20;;;;;;5116257;28;20430;-65
2022/06/11 01:36:19;;;;;;;8.07;4.77;;;12.30;94.50;;;;;;5116023;28;20235;-65
2022/06/11 01:38:51;;;;;;;6.83;3.90;;;12.30;94.10;;;;;;5115882;28;20469;-64
2022/06/11 01:41:28;;;;;;;3.33;2.90;;;12.30;94.20;;;;;;5115722;28;20447;-64
2022/06/11 01:44:01;;;;;;;4.47;3.60;;;12.30;94.10;;;;;;5116197;28;20773;-65
2022/06/11 01:46:33;;;;;;;3.60;3.30;;;12.40;94.10;;;;;;5115622;28;20430;-64
2022/06/11 01:49:05;;;;;;;4.30;3.90;;;12.40;94.30;;;;;;5115322;28;20425;-64
2022/06/11 01:51:49;;;;;;;3.57;2.83;;;12.30;93.70;;;;;;5115611;27;20445;-65
2022/06/11 01:54:32;;;;;;;5.37;3.07;;;12.40;93.40;;;;;;5115466;28;20529;-64
2022/06/11 01:57:20;;;;;;;5.43;3.37;;;12.30;93.40;;;;;;5115857;28;20517;-65
2022/06/11 02:00:11;;;;;;;4.43;3.00;;;12.30;93.60;;;;;;5115304;28;20481;-64
2022/06/11 02:02:55;;;;;;;3.90;2.90;;;12.30;93.20;;;;;;5115304;28;20438;-70
2022/06/11 02:05:40;;;;;;;4.90;3.05;;;12.20;92.70;;;;;;5112279;28;20532;-64
2022/06/11 02:08:15;;;;;;;4.67;2.77;;;12.00;92.70;;;;;;5115460;28;20195;-64
2022/06/11 02:10:49;;;;;;;3.80;3.00;;;11.90;93.10;;;;;;5115234;28;20418;-65
2022/06/11 02:13:25;;;;;;;3.75;2.80;;;11.80;93.70;;;;;;5115612;28;20195;-65
2022/06/11 02:16:06;;;;;;;3.35;2.45;;;11.80;94.00;;;;;;5114899;28;20176;-65
2022/06/11 02:18:41;;;;;;;5.77;2.90;;;11.80;94.30;;;;;;5115227;28;20245;-64
2022/06/11 02:21:18;;;;;;;4.05;2.90;;;11.90;93.90;;;;;;5114803;28;20802;-64
2022/06/11 02:23:50;;;;;;;3.27;2.57;;;11.90;93.90;;;;;;5114659;28;20263;-64
2022/06/11 02:26:22;;;;;;;3.65;2.30;;;11.80;93.30;;;;;;5115040;28;20434;-64
2022/06/11 02:28:58;;;;;;;3.45;2.67;;;11.80;93.20;;;;;;5114852;28;20212;-64
2022/06/11 02:31:30;;;;;;;3.75;3.00;;;11.80;93.30;;;;;;5114829;28;20272;-65
2022/06/11 02:34:06;;;;;;;4.57;3.22;;;11.80;93.30;;;;;;5113875;28;20259;-65
2022/06/11 02:36:48;;;;;;;6.05;2.78;;;11.70;93.00;;;;;;5114911;28;20274;-64
2022/06/11 02:39:16;;;;;;;4.57;2.50;;;11.70;92.80;;;;;;5114130;28;20700;-64
2022/06/11 02:41:43;;;;;;;4.38;3.17;;;11.70;92.70;;;;;;5114254;28;20185;-64
2022/06/11 02:44:12;;;;;;;4.15;2.75;;;11.70;92.90;;;;;;5114930;27;20225;-64
2022/06/11 02:46:50;;;;;;;4.38;2.78;;;11.70;93.50;;;;;;5114420;28;20546;-65
2022/06/11 02:49:21;;;;;;;4.63;3.20;;;11.70;93.80;;;;;;5114656;28;20235;-64
2022/06/11 02:51:54;;;;;;;4.65;3.65;;;11.60;93.90;;;;;;5113998;28;20264;-64
2022/06/11 02:54:23;;;;;;;3.90;3.53;;;11.60;93.90;;;;;;5114722;28;20188;-65
2022/06/11 02:56:55;;;;;;;4.38;2.70;;;11.60;93.70;;;;;;5113792;28;20189;-64
2022/06/11 02:59:27;;;;;;;4.35;2.75;;;11.60;93.10;;;;;;5114055;28;20222;-64
2022/06/11 03:01:57;;;;;;;4.25;3.17;;;11.50;92.90;;;;;;5114375;28;20234;-64
2022/06/11 03:04:28;;;;;;;3.70;2.83;;;11.50;93.10;;;;;;5114328;28;20185;-64
2022/06/11 03:06:56;;;;;;;4.63;3.03;;;11.50;93.10;;;;;;5114251;28;20675;-64
2022/06/11 03:09:27;;;;;;;3.95;3.10;;;11.50;93.00;;;;;;5114041;28;20434;-64
2022/06/11 03:11:55;;;;;;;3.10;2.33;;;11.50;92.80;;;;;;5114142;28;20194;-64
2022/06/11 03:14:25;;;;;;;3.50;2.75;;;11.50;92.60;;;;;;5113585;28;20476;-64
2022/06/11 03:16:54;;;;;;;4.40;2.67;;;11.40;92.40;;;;;;5114015;28;20192;-64
2022/06/11 03:19:22;;;;;;;4.40;2.97;;;11.40;92.70;;;;;;5113623;28;20215;-64
2022/06/11 03:21:56;;;;;;;3.13;2.50;;;11.40;93.00;;;;;;5113893;28;20246;-65
2022/06/11 03:24:29;;;;;;;3.55;3.13;;;11.30;92.60;;;;;;5114034;28;20194;-64
2022/06/11 03:27:02;;;;;;;10.18;3.13;;;11.20;93.10;;;;;;5113913;28;20354;-64
2022/06/11 03:29:29;;;;;;;5.57;3.60;;;11.30;93.50;;;;;;5113907;28;20228;-64
2022/06/11 03:32:06;;;;;;;6.07;4.32;;;11.20;93.70;;;;;;5113497;28;20185;-64
2022/06/11 03:34:35;;;;;;;5.75;4.53;;;11.20;94.00;;;;;;5113851;28;20216;-64
2022/06/11 03:37:04;;;;;;;6.07;3.85;;;11.20;94.20;;;;;;5113501;28;20181;-64
2022/06/11 03:39:32;;;;;;;4.53;3.35;;;11.20;94.30;;;;;;5113512;28;20216;-64
2022/06/11 03:42:03;;;;;;;5.70;3.75;;;11.30;94.60;;;;;;5113452;28;20267;-64
2022/06/11 03:44:35;;;;;;;5.13;3.20;;;11.30;94.70;;;;;;5113687;28;20198;-64
2022/06/11 03:47:03;;;;;;;4.10;2.78;;;11.40;94.80;;;;;;5113588;28;20257;-64
2022/06/11 03:49:35;;;;;;;3.95;2.50;;;11.40;94.80;;;;;;5112505;28;20192;-65
2022/06/11 03:52:10;;;;;;;3.90;2.60;;;11.50;94.80;;;;;;5113502;28;20192;-64
2022/06/11 03:54:37;;;;;;;5.82;3.80;;;11.50;94.90;;;;;;5113149;28;20194;-65
2022/06/11 03:57:13;;;;;;;4.50;2.85;;;11.50;94.80;;;;;;5113243;28;20558;-65
2022/06/11 03:59:40;;;;;;;4.45;3.10;;;11.50;94.60;;;;;;5113149;28;20216;-64
2022/06/11 04:02:08;;;;;;;4.15;2.60;;;11.50;95.10;;;;;;5113141;28;20196;-65
2022/06/11 04:04:50;;;;;;;4.30;3.20;;;11.40;95.00;;;;;;5113277;28;20188;-66
2022/06/11 04:07:19;;;;;;;4.82;3.30;;;11.40;95.10;;;;;;5113162;28;20206;-65
2022/06/11 04:09:52;;;;;;;3.90;3.10;;;11.40;95.00;;;;;;5113480;28;20547;-64
2022/06/11 04:12:19;;;;;;;5.53;3.90;;;11.40;95.20;;;;;;5112949;28;20245;-65
2022/06/11 04:14:49;;;;;;;4.07;3.10;;;11.40;95.30;;;;;;5112992;28;20271;-64
2022/06/11 04:17:20;;;;;;;4.20;3.05;;;11.40;95.60;;;;;;5092909;28;20185;-64
2022/06/11 04:19:51;;;;;;;4.45;3.45;;;11.40;95.70;;;;;;5092671;28;20750;-64
2022/06/11 04:22:21;;;;;;;5.25;2.90;;;11.40;95.80;;;;;;5096765;28;20180;-64
2022/06/11 04:24:49;;;;;;;5.10;3.30;;;11.50;96.00;;;;;;5113133;28;20180;-64
2022/06/11 04:27:19;;;;;;;5.97;3.80;;;11.50;96.20;;;;;;5113081;28;20236;-65
2022/06/11 04:29:55;;;;;;;6.03;3.83;;;11.50;96.60;;;;;;5112829;28;20216;-65
2022/06/11 04:32:23;;;;;;;4.82;3.65;;;11.60;96.80;;;;;;5112686;28;20309;-65
2022/06/11 04:34:56;;;;;;;5.75;4.10;;;11.70;96.40;;;;;;5112582;28;20939;-65
2022/06/11 04:37:28;;;;;;;6.70;4.07;;;11.80;96.60;;;;;;5112834;28;20192;-65
2022/06/11 04:40:03;;;;;;;6.00;4.40;;;11.80;96.50;;;;;;5112239;28;20197;-64
2022/06/11 04:42:42;;;;;;;5.53;4.05;;;11.90;96.70;;;;;;5112742;28;20210;-64
2022/06/11 04:45:10;;;;;;;5.90;4.35;;;12.00;96.90;;;;;;5112645;28;20176;-65
2022/06/11 04:47:43;;;;;;;5.32;4.15;;;12.00;96.90;;;;;;5112961;28;20196;-64
2022/06/11 04:50:17;;;;;;;6.15;4.50;;;12.10;97.00;;;;;;5112496;28;20227;-65
2022/06/11 04:52:46;;;;;;;5.03;3.80;;;12.20;96.90;;;;;;5112792;28;20199;-65
2022/06/11 04:55:18;;;;;;;4.57;3.33;;;12.30;96.80;;;;;;5112281;28;21016;-65
2022/06/11 04:57:45;;;;;;;11.20;4.25;;;12.30;96.80;;;;;;5112309;28;20441;-65
2022/06/11 05:00:15;;;;;;;5.15;3.70;;;12.40;96.70;;;;;;5112471;28;20220;-64
2022/06/11 05:02:51;;;;;;;4.30;3.00;;;12.50;96.70;;;;;;5115958;28;20184;-64
2022/06/11 05:05:27;;;;;;;5.15;3.67;;;12.60;97.00;;;;;;5117030;28;20437;-65
2022/06/11 05:07:59;;;;;;;5.03;3.50;;;12.70;97.20;;;;;;5116697;28;20224;-64
2022/06/11 05:10:30;;;;;;;8.00;3.03;;;12.80;97.20;;;;;;5116743;28;20443;-64
2022/06/11 05:12:58;;;;;;;5.33;3.90;;;12.90;97.10;;;;;;5116403;28;20434;-65
2022/06/11 05:15:26;;;;;;;4.30;3.30;;;13.10;97.00;;;;;;5116144;28;20444;-65
2022/06/11 05:18:07;;;;;;;4.17;3.57;;;13.20;97.10;;;;;;5116771;28;21082;-65
2022/06/11 05:20:34;;;;;;;5.93;3.70;;;13.30;97.30;;;;;;5115971;28;20478;-67
2022/06/11 05:23:05;;;;;;;4.17;3.10;;;13.40;97.40;;;;;;5116815;28;20442;-64
2022/06/11 05:25:37;;;;;;;5.00;2.93;;;13.50;97.60;;;;;;5116164;28;20525;-65
2022/06/11 05:28:08;;;;;;;4.00;3.23;;;13.70;97.20;;;;;;5116414;28;20472;-64
2022/06/11 05:30:35;;;;;;;5.63;2.90;;;13.80;97.30;;;;;;5115559;28;20438;-66
2022/06/11 05:33:05;;;;;;;4.00;3.10;;;13.90;97.30;;;;;;5116433;28;20465;-64
2022/06/11 05:35:38;;;;;;;5.70;2.83;;;14.00;97.30;;;;;;5116325;28;20438;-65
2022/06/11 05:38:09;;;;;;;4.40;3.40;;;14.10;97.40;;;;;;5116244;28;20442;-65
2022/06/11 05:40:48;;;;;;;3.70;2.80;;;14.10;97.40;;;;;;5116124;28;20472;-65
2022/06/11 05:43:16;;;;;;;3.77;2.63;;;14.30;97.20;;;;;;5116031;28;20430;-65
2022/06/11 05:45:47;;;;;;;5.17;2.80;;;14.30;96.90;;;;;;5115674;28;20792;-65
2022/06/11 05:48:17;;;;;;;3.70;2.90;;;14.50;97.00;;;;;;5115513;28;20982;-65
2022/06/11 05:50:53;;;;;;;4.40;3.10;;;14.50;97.00;;;;;;5115884;28;20484;-65
2022/06/11 05:53:24;;;;;;;5.17;3.77;;;14.60;97.10;;;;;;5115706;27;20536;-65
2022/06/11 05:55:52;;;;;;;6.60;4.17;;;14.70;97.00;;;;;;5116493;28;20480;-65
2022/06/11 05:58:24;;;;;;;4.13;3.40;;;14.80;97.10;;;;;;5115362;28;20995;-65
2022/06/11 06:00:56;;;;;;;5.40;3.70;;;14.90;97.10;;;;;;5116002;28;20871;-65
2022/06/11 06:03:38;;;;;;;5.30;2.93;;;15.00;97.30;;;;;;5115385;28;20434;-65
2022/06/11 06:06:06;;;;;;;4.97;3.90;;;15.20;96.70;;;;;;5106080;28;20441;-65
2022/06/11 06:08:37;;;;;;;5.80;3.20;;;15.20;95.80;;;;;;5116309;28;20438;-65
2022/06/11 06:11:05;;;;;;;3.87;3.17;;;15.30;95.00;;;;;;5115564;28;20431;-65
2022/06/11 06:13:48;;;;;;;4.03;3.40;;;15.40;95.00;;;;;;5114767;27;20479;-65
2022/06/11 06:16:16;;;;;;;3.73;3.10;;;15.50;95.00;;;;;;5115227;28;20448;-65
2022/06/11 06:18:43;;;;;;;8.47;3.20;;;15.60;94.90;;;;;;5115822;28;20802;-65
2022/06/11 06:21:27;;;;;;;8.63;2.90;;;15.60;94.70;;;;;;5114925;28;20473;-65
2022/06/11 06:23:56;;;;;;;3.60;2.80;;;15.80;94.00;;;;;;5114975;28;20896;-66
2022/06/11 06:26:34;;;;;;;3.90;3.00;;;15.80;93.40;;;;;;5115685;28;20461;-65
2022/06/11 06:29:07;;;;;;;4.43;2.60;;;15.90;92.20;;;;;;5115099;28;20466;-67
2022/06/11 06:31:37;;;;;;;3.97;2.67;;;16.00;91.60;;;;;;5115435;28;20788;-65
2022/06/11 06:34:04;;;;;;;4.00;2.70;;;16.10;91.80;;;;;;5115045;28;20466;-65
2022/06/11 06:36:34;;;;;;;5.10;2.80;;;16.20;91.80;;;;;;5115271;28;20501;-65
2022/06/11 06:39:04;;;;;;;6.03;2.70;;;16.30;91.70;;;;;;5114964;28;20443;-65
2022/06/11 06:41:32;;;;;;;4.03;2.60;;;16.30;92.50;;;;;;5115228;28;20481;-65
2022/06/11 06:44:00;;;;;;;5.30;2.93;;;16.50;92.50;;;;;;5114792;28;20431;-65
2022/06/11 06:46:32;;;;;;;4.17;2.57;;;16.60;91.80;;;;;;5115139;28;20453;-65
2022/06/11 06:49:04;;;;;;;5.37;2.93;;;16.70;91.50;;;;;;5114876;28;20462;-65
2022/06/11 06:51:33;;;;;;;5.17;3.00;;;16.80;91.90;;;;;;5115194;28;20499;-65
2022/06/11 06:54:02;;;;;;;5.50;2.70;;;16.90;91.80;;;;;;5114507;28;20438;-65
2022/06/11 06:56:34;;;;;;;3.70;2.70;;;17.00;91.80;;;;;;5114432;28;20883;-64
2022/06/11 06:59:02;;;;;;;3.70;2.23;;;17.10;91.70;;;;;;5115146;28;20431;-65
2022/06/11 07:01:32;;;;;;;3.90;2.37;;;17.20;91.50;;;;;;5114328;28;20474;-64
2022/06/11 07:04:05;;;;;;;3.83;2.20;;;17.30;91.10;;;;;;5114822;28;20442;-65
2022/06/11 07:06:35;;;;;;;4.70;2.60;;;17.40;91.20;;;;;;5114617;28;20473;-65
2022/06/11 07:09:04;;;;;;;4.60;2.93;;;17.50;90.90;;;;;;5114703;28;20522;-65
2022/06/11 07:11:34;;;;;;;6.13;3.87;;;17.60;90.50;;;;;;5114101;28;20441;-64
2022/06/11 07:14:01;;;;;;;3.70;2.30;;;17.70;90.40;;;;;;5114218;28;20517;-65
2022/06/11 07:16:38;;;;;;;3.80;2.70;;;17.80;90.10;;;;;;5114366;28;20466;-65
2022/06/11 07:19:14;;;;;;;3.00;2.03;;;17.90;90.60;;;;;;5114206;28;20449;-65
2022/06/11 07:21:44;;;;;;;5.60;2.90;;;18.10;90.40;;;;;;5114356;28;20481;-65
2022/06/11 07:24:19;;;;;;;4.60;2.60;;;18.20;90.30;;;;;;5113871;28;20430;-65
2022/06/11 07:26:53;;;;;;;3.37;2.27;;;18.30;90.30;;;;;;5114311;28;20499;-65
2022/06/11 07:29:37;;;;;;;3.73;2.47;;;18.50;90.00;;;;;;5113373;28;20454;-69
2022/06/11 07:32:13;;;;;;;3.53;2.20;;;18.60;88.80;;;;;;5111382;28;20442;-65
2022/06/11 07:34:41;;;;;;;5.67;2.60;;;18.70;88.00;;;;;;5114336;28;20430;-65
2022/06/11 07:37:14;;;;;;;3.93;2.60;;;18.80;87.50;;;;;;5113895;28;20823;-65
2022/06/11 07:39:43;;;;;;;3.43;2.50;;;19.00;88.30;;;;;;5113703;28;20965;-65
2022/06/11 07:42:12;;;;;;;4.33;2.70;;;19.10;87.70;;;;;;5114153;28;21003;-65
2022/06/11 07:44:40;;;;;;;3.97;2.47;;;19.20;86.40;;;;;;5113869;28;20433;-68
2022/06/11 07:47:07;;;;;;;3.07;1.80;;;19.30;83.30;;;;;;5113180;28;20449;-65
2022/06/11 07:49:35;;;;;;;5.50;3.60;;;19.40;81.60;;;;;;5113745;28;20564;-65
2022/06/11 07:52:07;;;;;;;3.30;2.27;;;19.50;79.20;;;;;;5113889;27;20434;-66
2022/06/11 07:54:36;;;;;;;3.20;2.40;;;19.70;80.50;;;;;;5093392;28;20435;-65
2022/06/11 07:57:06;;;;;;;3.20;2.33;;;19.70;78.40;;;;;;5098684;28;20430;-65
2022/06/11 07:59:34;;;;;;;2.80;2.20;;;19.90;78.20;;;;;;5113604;28;20533;-65
2022/06/11 08:02:07;;;;;;;3.50;1.90;;;20.00;78.20;;;;;;5112990;28;20481;-65
2022/06/11 08:04:34;;;;;;;4.47;2.03;;;20.10;77.50;;;;;;5113059;28;20439;-65
2022/06/11 08:07:05;;;;;;;6.90;2.60;;;20.20;74.10;;;;;;5109722;28;20833;-66
2022/06/11 08:09:37;;;;;;;3.27;2.23;;;20.30;76.20;;;;;;5111428;28;20434;-65
2022/06/11 08:12:12;;;;;;;3.23;2.03;;;20.50;74.70;;;;;;5111912;28;20992;-66
2022/06/11 08:14:39;;;;;;;2.80;1.90;;;20.60;73.80;;;;;;5107361;28;20482;-65
2022/06/11 08:17:06;;;;;;;3.50;2.43;;;20.70;71.00;;;;;;5111559;28;20446;-65
2022/06/11 08:19:36;;;;;;;3.10;2.30;;;20.80;71.30;;;;;;5111132;28;20466;-65
2022/06/11 08:22:07;;;;;;;5.60;2.27;;;20.90;71.20;;;;;;5110712;28;20478;-65
2022/06/11 08:24:39;;;;;;;3.23;2.47;;;20.90;70.90;;;;;;5111400;28;20430;-67
2022/06/11 08:27:06;;;;;;;3.23;2.30;;;21.00;72.10;;;;;;5110914;28;20434;-65
2022/06/11 08:29:35;;;;;;;3.20;2.10;;;21.10;69.80;;;;;;5111079;28;21029;-66
2022/06/11 08:32:04;;;;;;;3.27;2.10;;;21.20;72.20;;;;;;5111476;28;20458;-71
2022/06/11 08:34:36;;;;;;;3.53;2.00;;;21.40;73.60;;;;;;5111535;28;20933;-65
2022/06/11 08:37:04;;;;;;;5.23;3.20;;;21.60;75.00;;;;;;5110194;28;20434;-65
2022/06/11 08:39:34;;;;;;;4.63;2.17;;;21.70;67.90;;;;;;5111192;28;20433;-65
2022/06/11 08:42:01;;;;;;;3.40;2.60;;;21.70;67.50;;;;;;5110143;28;20534;-68
2022/06/11 08:44:29;;;;;;;3.40;2.10;;;21.80;68.70;;;;;;5110730;28;20798;-65
2022/06/11 08:47:02;;;;;;;3.83;2.20;;;21.90;69.20;;;;;;5111515;28;20487;-65
2022/06/11 08:49:39;;;;;;;3.30;2.43;;;22.00;66.10;;;;;;5111526;28;20430;-65
2022/06/11 08:52:18;;;;;;;3.93;2.13;;;22.10;61.90;;;;;;5107435;28;20440;-70
2022/06/11 08:54:59;;;;;;;3.40;2.07;;;22.10;65.00;;;;;;5111376;28;20450;-65
2022/06/11 08:57:39;;;;;;;4.40;2.57;;;22.30;66.60;;;;;;5108827;28;20422;-65
2022/06/11 09:00:16;;;;;;;5.23;1.90;;;22.40;65.40;;;;;;5106783;28;20451;-65
2022/06/11 09:02:58;;;;;;;3.90;2.20;;;22.50;65.60;;;;;;5104893;28;20483;-65
2022/06/11 09:05:58;;;;;;;5.93;2.37;;;22.60;65.80;;;;;;5106958;28;20530;-66
2022/06/11 09:08:46;;;;;;;2.73;1.73;;;22.80;66.90;;;;;;5108648;28;20451;-65
2022/06/11 09:11:31;;;;;;;6.70;2.27;;;23.00;67.10;;;;;;5107703;28;20554;-66
2022/06/11 09:14:22;;;;;;;3.60;2.43;;;23.20;64.30;;;;;;5110610;28;20531;-65
2022/06/11 09:17:11;;;;;;;3.77;1.83;;;23.20;60.10;;;;;;5111055;28;20466;-66
2022/06/11 09:19:59;;;;;;;3.00;1.97;;;23.30;59.10;;;;;;5109893;28;20438;-65
2022/06/11 09:22:42;;;;;;;3.03;2.03;;;23.40;57.80;;;;;;5109791;28;20559;-67
2022/06/11 09:25:26;;;;;;;2.80;1.90;;;23.40;58.40;;;;;;5109029;28;20441;-65
2022/06/11 09:28:03;;;;;;;2.83;2.00;;;23.50;59.20;;;;;;5108468;28;20988;-66
2022/06/11 09:30:40;;;;;;;3.80;2.43;;;23.60;55.70;;;;;;5110055;28;20878;-68
2022/06/11 09:33:15;;;;;;;3.87;2.27;;;23.70;56.00;;;;;;5108183;28;20930;-66
2022/06/11 09:35:51;;;;;;;3.17;2.10;;;23.90;58.90;;;;;;5110094;28;20433;-66
2022/06/11 09:38:33;;;;;;;4.03;2.03;;;24.00;57.00;;;;;;5107878;28;20445;-65
2022/06/11 09:41:33;;;;;;;3.17;2.17;;;24.20;56.60;;;;;;5106205;28;20465;-65
2022/06/11 09:44:12;;;;;;;5.03;2.00;;;24.20;55.60;;;;;;5110421;28;20433;-65
2022/06/11 09:46:53;;;;;;;5.40;1.90;;;24.30;54.80;;;;;;5110079;28;20491;-66
2022/06/11 09:49:30;;;;;;;3.20;2.03;;;24.40;55.60;;;;;;5113020;28;20468;-66
2022/06/11 09:52:07;;;;;;;3.10;2.10;;;24.50;54.30;;;;;;5109653;28;20923;-65
2022/06/11 09:54:52;;;;;;;2.30;1.67;;;24.50;54.50;;;;;;5114386;28;20437;-65
2022/06/11 09:57:28;;;;;;;2.83;2.10;;;24.70;57.10;;;;;;5111428;28;20440;-66
2022/06/11 10:00:05;;;;;;;2.40;1.63;;;24.70;53.90;;;;;;5113172;28;20437;-66
2022/06/11 10:02:39;;;;;;;3.53;2.30;;;24.90;53.60;;;;;;5114566;28;20485;-65
2022/06/11 10:05:14;;;;;;;3.17;1.77;;;24.90;54.00;;;;;;5112891;28;20446;-67
2022/06/11 10:07:48;;;;;;;3.70;2.33;;;25.10;53.30;;;;;;5114335;28;20521;-66
2022/06/11 10:10:21;;;;;;;3.53;2.10;;;25.20;52.60;;;;;;5113976;28;20431;-66
2022/06/11 10:12:52;;;;;;;3.87;2.23;;;25.30;51.70;;;;;;5110237;28;20430;-65
2022/06/11 10:15:22;;;;;;;5.13;2.17;;;25.30;49.90;;;;;;5113380;28;20464;-65
2022/06/11 10:17:56;;;;;;;3.23;1.60;;;25.40;49.70;;;;;;5112574;28;20518;-65
2022/06/11 10:20:27;;;;;;;3.30;2.43;;;25.40;49.80;;;;;;5113584;28;20489;-65
2022/06/11 10:23:02;;;;;;;3.27;2.10;;;25.50;50.30;;;;;;5113594;28;20477;-67
2022/06/11 10:25:32;;;;;;;3.37;1.70;;;25.60;49.30;;;;;;5110274;28;20433;-65
2022/06/11 10:28:03;;;;;;;2.77;1.50;;;25.70;47.80;;;;;;5113770;28;20877;-65
2022/06/11 10:30:42;;;;;;;4.03;2.03;;;25.70;46.90;;;;;;5113336;28;20472;-65
2022/06/11 10:33:17;;;;;;;4.57;1.73;;;25.80;47.10;;;;;;5112624;27;20434;-65
2022/06/11 10:35:49;;;;;;;3.13;1.60;;;25.80;44.50;;;;;;5111376;28;20834;-66
2022/06/11 10:38:29;;;;;;;2.67;1.50;;;25.80;42.10;;;;;;5114060;28;20783;-65
2022/06/11 10:40:59;;;;;;;3.00;1.43;;;25.80;42.20;;;;;;5114149;28;20525;-65
2022/06/11 10:43:34;;;;;;;2.20;1.10;;;25.80;40.60;;;;;;5113710;28;20474;-66
2022/06/11 10:46:02;;;;;;;3.70;1.40;;;25.80;41.10;;;;;;5113635;28;20445;-65
2022/06/11 10:48:35;;;;;;;3.00;1.70;;;25.90;38.80;;;;;;5114069;28;20838;-65
2022/06/11 10:51:06;;;;;;;2.30;1.30;;;25.90;39.20;;;;;;5113883;28;20517;-65
2022/06/11 10:53:41;;;;;;;2.30;1.20;;;25.90;38.30;;;;;;5113974;28;20470;-65
2022/06/11 10:56:15;;;;;;;2.50;1.23;;;25.90;36.00;;;;;;5114089;28;20953;-67
2022/06/11 10:58:46;;;;;;;3.30;1.50;;;25.90;35.60;;;;;;5112999;28;20516;-66
2022/06/11 11:01:20;;;;;;;2.00;1.17;;;25.90;36.90;;;;;;5113629;28;20453;-65
2022/06/11 11:03:50;;;;;;;2.97;1.30;;;25.90;38.40;;;;;;5113249;28;20792;-66
2022/06/11 11:06:25;;;;;;;2.70;1.33;;;25.90;36.10;;;;;;5109561;28;20540;-65
2022/06/11 11:08:55;;;;;;;3.80;1.67;;;25.80;36.40;;;;;;5113691;28;20433;-65
2022/06/11 11:11:24;;;;;;;2.60;1.60;;;25.80;38.10;;;;;;5113229;27;20555;-65
2022/06/11 11:13:57;;;;;;;3.70;1.73;;;25.80;39.60;;;;;;5113403;27;20438;-65
2022/06/11 11:16:30;;;;;;;2.93;1.67;;;25.80;43.30;;;;;;5113198;28;20541;-65
2022/06/11 11:19:04;;;;;;;4.80;1.60;;;25.90;44.80;;;;;;5109211;28;20436;-65
2022/06/11 11:21:34;;;;;;;6.80;1.67;;;26.10;45.50;;;;;;5113405;28;20430;-65
2022/06/11 11:24:08;;;;;;;2.73;1.80;;;26.20;44.70;;;;;;5113122;28;20469;-66
2022/06/11 11:26:38;;;;;;;4.30;1.50;;;26.30;44.40;;;;;;5113234;28;20761;-65
2022/06/11 11:29:09;;;;;;;2.63;1.70;;;26.40;42.40;;;;;;5112636;28;20513;-66
2022/06/11 11:31:45;;;;;;;4.43;1.63;;;26.50;44.20;;;;;;5112859;28;20438;-65
2022/06/11 11:34:15;;;;;;;2.53;1.80;;;26.60;45.30;;;;;;5113359;28;20430;-65
2022/06/11 11:36:43;;;;;;;3.10;1.70;;;26.70;45.00;;;;;;5112998;28;20804;-66
2022/06/11 11:39:27;;;;;;;4.33;1.70;;;26.80;46.10;;;;;;5108854;28;20438;-65
2022/06/11 11:42:03;;;;;;;2.43;1.83;;;26.90;45.10;;;;;;5112571;28;20581;-66
2022/06/11 11:44:36;;;;;;;3.20;1.70;;;26.90;43.50;;;;;;5110165;28;21009;-65
2022/06/11 11:47:11;;;;;;;4.80;3.37;;;26.90;41.70;;;;;;5112752;28;20567;-67
2022/06/11 11:49:39;;;;;;;2.57;1.50;;;26.90;43.60;;;;;;5109018;28;20434;-66
2022/06/11 11:52:14;;;;;;;2.70;1.93;;;27.00;42.10;;;;;;5112722;28;20776;-65
2022/06/11 11:54:54;;;;;;;2.50;1.83;;;26.90;41.40;;;;;;5112629;28;20442;-66
2022/06/11 11:57:23;;;;;;;3.10;1.77;;;27.00;42.80;;;;;;5112726;28;20525;-65
2022/06/11 11:59:53;;;;;;;4.10;1.70;;;27.00;42.70;;;;;;5112229;28;20508;-65
2022/06/11 12:02:24;;;;;;;2.50;1.77;;;27.10;42.20;;;;;;5112720;28;20466;-65
2022/06/11 12:04:55;;;;;;;2.40;1.40;;;27.10;41.60;;;;;;5110764;28;20533;-65
2022/06/11 12:07:32;;;;;;;3.97;1.20;;;27.20;37.70;;;;;;5109104;28;20434;-65
2022/06/11 12:10:14;;;;;;;2.97;1.40;;;27.00;36.70;;;;;;5112003;28;20434;-65
2022/06/11 12:12:45;;;;;;;2.30;1.40;;;27.00;38.20;;;;;;5108123;28;20433;-70
2022/06/11 12:15:18;;;;;;;2.50;1.63;;;27.00;37.70;;;;;;5110459;28;20498;-65
2022/06/11 12:17:50;;;;;;;2.73;1.40;;;27.00;37.80;;;;;;5107574;28;20483;-66
2022/06/11 12:20:25;;;;;;;3.40;1.30;;;27.00;36.40;;;;;;5108937;28;20438;-65
2022/06/11 12:22:59;;;;;;;2.30;1.43;;;27.00;38.20;;;;;;5111240;28;20473;-65
2022/06/11 12:25:37;;;;;;;3.50;1.47;;;27.00;38.80;;;;;;5111539;28;21960;-66
2022/06/11 12:28:05;;;;;;;2.63;1.13;;;27.00;39.70;;;;;;5111618;28;20458;-65
2022/06/11 12:30:33;;;;;;;4.80;1.43;;;27.00;39.70;;;;;;5111160;28;20855;-65
2022/06/11 12:33:01;;;;;;;2.30;1.60;;;27.10;40.40;;;;;;5111742;28;20430;-65
2022/06/11 12:35:36;;;;;;;2.73;1.67;;;27.10;39.90;;;;;;5110908;28;20845;-66
2022/06/11 12:38:10;;;;;;;2.60;1.73;;;27.20;39.50;;;;;;5108799;28;21200;-65
2022/06/11 12:40:46;;;;;;;3.20;2.03;;;27.20;38.50;;;;;;5111687;28;20450;-67
2022/06/11 12:43:40;;;;;;;2.87;1.10;;;27.20;37.80;;;;;;5107863;28;21030;-65
2022/06/11 12:46:17;;;;;;;2.70;1.77;;;27.10;36.70;;;;;;5108937;28;21767;-65
2022/06/11 12:48:51;;;;;;;3.33;1.97;;;27.20;37.20;;;;;;5110807;28;20438;-66
2022/06/11 12:51:29;;;;;;;2.90;1.57;;;27.20;36.50;;;;;;5111269;28;20854;-65
2022/06/11 12:54:00;;;;;;;3.03;1.20;;;27.20;37.60;;;;;;5110482;28;20438;-65
2022/06/11 12:57:00;;;;;;;3.00;1.50;;;27.20;38.40;;;;;;5111481;28;20442;-65
2022/06/11 12:59:54;;;;;;;2.87;1.57;;;27.10;37.70;;;;;;5108846;28;20434;-65
2022/06/11 13:02:47;;;;;;;3.30;1.37;;;27.10;36.90;;;;;;5111178;28;20489;-65
2022/06/11 13:05:36;;;;;;;2.33;1.50;;;27.10;36.90;;;;;;5110940;28;20503;-65
2022/06/11 13:08:25;;;;;;;3.33;1.80;;;27.00;38.80;;;;;;5111648;28;20473;-65
2022/06/11 13:11:02;;;;;;;2.50;1.53;;;27.00;38.70;;;;;;5111219;28;20513;-65
2022/06/11 13:13:53;;;;;;;4.13;1.90;;;27.00;37.90;;;;;;5110578;28;20438;-66
2022/06/11 13:16:27;;;;;;;2.73;1.50;;;26.90;37.00;;;;;;5110247;28;20422;-67
2022/06/11 13:19:14;;;;;;;2.20;1.07;;;26.90;36.10;;;;;;5107770;28;20446;-65
2022/06/11 13:21:51;;;;;;;3.23;1.10;;;26.70;36.80;;;;;;5106599;28;20438;-65